Latest Weather Observations for Derby

IDW60801

Issued at 10:23 pm WST Wednesday 8 July 2020 (issued every 10 minutes, with the page automatically refreshed every 10 minutes)

About weather observations | Map of weather stations | Latest weather observations for WA | Other Formats
Station Details ID: 003032 Name: DERBY AERO Lat: -17.37 Lon: 123.66 Height: 6.2 m
Data from the previous 72 hours. | See also: Recent months at Derby
Date/Time
WST
Temp
°C
App
Temp
°C
Dew
Point
°C
Rel
Hum
%
Delta-T
°C
Wind Press
QNH
hPa
Press
MSL
hPa
Rain since
9am
mm
Dir  Spd
km/h
Gust
km/h
Spd
kts
Gust
kts
08/10:00pm 18.6 18.8 10.7 60 4.3 CALM 0 0 0 0 1013.9 1013.9 0.0
08/09:30pm 18.5 17.5 10.3 59 4.4 S 6 7 3 4 1014.0 1014.0 0.0
08/09:00pm 19.2 18.4 11.0 59 4.5 WNW 6 9 3 5 1014.1 1014.1 0.0
08/08:30pm 19.7 19.1 11.7 60 4.4 NW 6 7 3 4 1014.0 1014.0 0.0
08/08:00pm 20.3 19.5 11.8 58 4.7 NW 7 9 4 5 1013.9 1013.9 0.0
08/07:30pm 21.1 19.3 10.9 52 5.6 NW 11 13 6 7 1013.7 1013.7 0.0
08/07:00pm 21.1 19.8 10.0 49 6.0 W 7 9 4 5 1013.4 1013.4 0.0
08/06:30pm 22.5 20.2 7.5 38 7.8 NW 9 11 5 6 1013.1 1013.1 0.0
08/06:00pm 23.6 21.3 7.3 35 8.5 NNW 9 11 5 6 1012.6 1012.6 0.0
08/05:30pm 24.3 21.1 5.1 29 9.7 NW 11 15 6 8 1012.5 1012.5 0.0
08/05:00pm 26.5 22.4 4.3 24 11.2 WNW 15 19 8 10 1012.3 1012.3 0.0
08/04:30pm 28.4 24.0 2.6 19 12.7 WNW 15 19 8 10 1012.2 1012.2 0.0
08/04:00pm 29.1 24.1 1.6 17 13.4 WNW 17 20 9 11 1012.2 1012.2 0.0
08/03:30pm 29.3 24.4 1.7 17 13.5 WNW 17 20 9 11 1012.1 1012.1 0.0
08/03:00pm 29.5 24.1 2.7 18 13.4 WNW 20 24 11 13 1012.2 1012.2 0.0
08/02:30pm 29.1 23.7 4.6 21 12.6 W 22 26 12 14 1012.3 1012.3 0.0
08/02:00pm 31.0 27.4 3.1 17 14.1 W 11 24 6 13 1012.2 1012.2 0.0
08/01:30pm 30.8 26.6 -0.8 13 15.0 ENE 11 28 6 15 1012.6 1012.6 0.0
08/01:00pm 30.5 25.5 -1.0 13 14.8 N 15 24 8 13 1013.0 1013.0 0.0
08/12:30pm 30.0 25.9 -0.4 14 14.4 ENE 11 19 6 10 1013.5 1013.5 0.0
08/12:00pm 29.4 24.2 0.1 15 13.9 NE 17 24 9 13 1014.0 1014.0 0.0
08/11:30am 28.7 23.8 -0.5 15 13.7 NE 15 26 8 14 1014.6 1014.6 0.0
08/11:00am 28.1 22.8 -0.9 15 13.4 ENE 17 28 9 15 1015.0 1015.0 0.0
08/10:30am 27.4 21.5 -0.6 16 13.0 NE 20 28 11 15 1015.3 1015.3 0.0
08/10:00am 27.3 20.9 -1.6 15 13.1 ENE 22 30 12 16 1015.9 1015.9 0.0
08/09:30am 26.3 20.3 -1.5 16 12.6 NE 20 30 11 16 1016.3 1016.3 0.0
08/09:00am 25.0 19.8 -0.2 19 11.5 ENE 17 28 9 15 1016.3 1016.3 0.0
08/08:30am 23.8 19.1 0.8 22 10.6 E 15 20 8 11 1016.4 1016.4 0.0
08/08:00am 21.5 16.8 1.2 26 9.3 E 15 19 8 10 1016.3 1016.3 0.0
08/07:30am 18.5 14.2 1.1 31 7.8 SE 13 17 7 9 1016.2 1016.2 0.0
08/07:00am 16.8 12.5 0.9 34 6.9 SE 13 15 7 8 1015.9 1015.9 0.0
08/06:30am 14.1 11.4 0.4 39 5.8 SSE 4 11 2 6 1015.8 1015.8 0.0
08/06:00am 14.5 10.6 1.1 40 5.8 ESE 11 15 6 8 1015.0 1015.0 0.0
08/05:30am 14.1 10.7 2.0 44 5.3 SE 9 11 5 6 1014.9 1014.9 0.0
08/05:00am 14.2 10.6 0.8 40 5.7 SSE 9 9 5 5 1014.8 1014.8 0.0
08/04:30am 13.9 10.3 0.9 41 5.5 SSE 9 11 5 6 1014.5 1014.5 0.0
08/04:00am 13.5 10.0 1.5 44 5.2 SSE 9 11 5 6 1014.6 1014.6 0.0
08/03:30am 13.9 10.9 1.9 44 5.2 SE 7 9 4 5 1014.4 1014.4 0.0
08/03:00am 14.1 10.7 2.0 44 5.3 SSE 9 11 5 6 1014.4 1014.4 0.0
08/02:30am 13.9 10.1 1.9 44 5.2 S 11 11 6 6 1014.6 1014.6 0.0
08/02:00am 15.1 11.1 2.6 43 5.6 SSE 13 15 7 8 1014.6 1014.6 0.0
08/01:30am 15.2 10.7 2.1 41 5.8 S 15 17 8 9 1014.8 1014.8 0.0
08/01:00am 16.0 12.0 2.8 41 6.0 S 13 15 7 8 1015.0 1015.0 0.0
08/12:30am 15.8 12.9 2.6 41 5.9 SSE 7 9 4 5 1015.1 1015.1 0.0
08/12:00am 16.0 12.7 2.4 40 6.1 S 9 11 5 6 1015.3 1015.3 0.0
 
Date/Time
WST
Temp
°C
App
Temp
°C
Dew
Point
°C
Rel
Hum
%
Delta-T
°C
Wind Press
QNH
hPa
Press
MSL
hPa
Rain since
9am
mm
Dir  Spd
km/h
Gust
km/h
Spd
kts
Gust
kts
07/11:30pm 16.2 13.0 2.9 41 6.0 SSE 9 11 5 6 1015.4 1015.4 0.0
07/11:00pm 16.6 13.8 3.3 41 6.1 SSE 7 9 4 5 1015.6 1015.6 0.0
07/10:30pm 17.6 14.3 2.4 36 6.9 SE 9 11 5 6 1015.8 1015.8 0.0
07/10:00pm 18.4 14.3 2.3 34 7.3 SE 13 13 7 7 1015.8 1015.8 0.0
07/09:30pm 18.8 14.3 2.2 33 7.6 SE 15 17 8 9 1015.8 1015.8 0.0
07/09:00pm 19.6 15.2 2.5 32 7.9 SE 15 17 8 9 1015.8 1015.8 0.0
07/08:30pm 20.4 16.4 2.7 31 8.3 SE 13 15 7 8 1015.6 1015.6 0.0
07/08:00pm 20.2 16.8 3.9 34 7.8 SSE 11 13 6 7 1015.6 1015.6 0.0
07/07:30pm 22.4 18.6 4.0 30 9.0 SSE 13 15 7 8 1015.2 1015.2 0.0
07/07:00pm 19.2 17.0 7.9 48 5.8 SE 9 11 5 6 1015.1 1015.1 0.0
07/06:30pm 22.0 20.8 9.5 45 6.7 WSW 6 7 3 4 1014.7 1014.7 0.0
07/06:00pm 23.1 21.4 8.4 39 7.8 WNW 7 9 4 5 1014.6 1014.6 0.0
07/05:30pm 24.7 22.9 7.8 34 8.9 NNW 7 9 4 5 1014.2 1014.2 0.0
07/05:00pm 26.3 23.2 7.4 30 10.0 NW 13 13 7 7 1013.9 1013.9 0.0
07/04:30pm 27.4 23.2 5.6 25 11.3 NW 17 20 9 11 1013.8 1013.8 0.0
07/04:00pm 28.2 23.9 6.9 26 11.3 NW 19 22 10 12 1013.7 1013.7 0.0
07/03:30pm 28.6 24.0 6.7 25 11.6 WNW 20 24 11 13 1013.6 1013.6 0.0
07/03:00pm 29.1 24.4 5.9 23 12.2 WNW 20 24 11 13 1013.5 1013.5 0.0
07/02:30pm 29.5 24.6 4.2 20 12.9 WNW 19 24 10 13 1013.8 1013.8 0.0
07/02:00pm 29.0 25.0 5.1 22 12.4 WNW 15 24 8 13 1013.9 1013.9 0.0
07/01:30pm 30.2 26.0 1.6 16 14.1 E 13 19 7 10 1014.1 1014.1 0.0
07/01:00pm 29.4 24.8 1.8 17 13.5 ESE 15 24 8 13 1014.6 1014.6 0.0
07/12:30pm 29.1 24.5 1.6 17 13.4 ESE 15 26 8 14 1015.0 1015.0 0.0
07/12:00pm 28.8 24.3 2.1 18 13.1 ESE 15 24 8 13 1015.5 1015.5 0.0
07/11:30am 28.1 23.9 1.6 18 12.8 E 13 22 7 12 1016.1 1016.1 0.0
07/11:00am 27.8 23.3 2.1 19 12.5 ENE 15 22 8 12 1016.5 1016.5 0.0
07/10:30am 27.1 21.5 1.5 19 12.3 E 20 28 11 15 1016.9 1016.9 0.0
07/10:00am 26.1 20.0 0.7 19 11.9 ENE 22 32 12 17 1017.3 1017.3 0.0
07/09:30am 25.1 18.8 1.3 21 11.2 E 24 32 13 17 1017.7 1017.7 0.0
07/09:00am 24.0 19.3 3.3 26 10.0 E 17 24 9 13 1017.8 1017.8 0.0
07/08:59am 23.5 18.8 2.9 26 9.9 E 17 24 9 13 1017.8 1017.8 0.0
07/08:40am 23.0 18.4 3.5 28 9.4 ESE 17 24 9 13 1017.8 1017.8 0.0
07/08:30am 22.4 18.1 3.0 28 9.3 ESE 15 22 8 12 1017.8 1017.8 0.0
07/08:00am 20.7 16.3 2.5 30 8.5 ESE 15 19 8 10 1017.8 1017.8 0.0
07/07:30am 19.2 15.2 2.6 33 7.7 ESE 13 17 7 9 1017.6 1017.6 0.0
07/07:00am 16.4 12.7 2.1 38 6.4 SE 11 13 6 7 1017.3 1017.3 0.0
07/06:30am 15.3 11.2 2.1 41 5.8 SE 13 13 7 7 1017.1 1017.1 0.0
07/06:00am 14.3 10.1 1.9 43 5.4 SE 13 15 7 8 1017.0 1017.0 0.0
07/05:30am 14.4 10.3 2.0 43 5.4 SE 13 15 7 8 1016.7 1016.7 0.0
07/05:00am 13.9 10.2 2.2 45 5.1 SE 11 13 6 7 1016.3 1016.3 0.0
07/04:30am 14.9 11.4 1.4 40 5.9 SE 9 11 5 6 1016.1 1016.1 0.0
07/04:00am 14.5 10.6 1.4 41 5.7 SSE 11 11 6 6 1016.1 1016.1 0.0
07/03:30am 15.1 11.2 1.3 39 6.0 SSE 11 13 6 7 1016.2 1016.2 0.0
07/03:00am 15.6 12.1 1.0 37 6.3 SSE 9 11 5 6 1016.3 1016.3 0.0
07/02:30am 16.7 12.4 0.8 34 6.9 SSE 13 15 7 8 1016.3 1016.3 0.0
07/02:00am 17.3 12.4 1.7 35 7.0 SSE 17 19 9 10 1016.3 1016.3 0.0
07/01:30am 15.1 10.7 2.6 43 5.6 S 15 17 8 9 1016.3 1016.3 0.0
07/01:07am 15.3 11.2 2.1 41 5.8 SSE 13 15 7 8 1016.4 1016.4 0.0
07/01:00am 15.5 11.4 2.3 41 5.9 SSE 13 17 7 9 1016.5 1016.5 0.0
07/12:48am 15.6 11.1 2.4 41 5.9 S 15 17 8 9 1016.5 1016.5 0.0
07/12:30am 15.6 11.0 1.7 39 6.1 S 15 17 8 9 1016.6 1016.6 0.0
07/12:00am 16.3 11.7 1.6 37 6.5 SSE 15 17 8 9 1016.8 1016.8 0.0
 
Date/Time
WST
Temp
°C
App
Temp
°C
Dew
Point
°C
Rel
Hum
%
Delta-T
°C
Wind Press
QNH
hPa
Press
MSL
hPa
Rain since
9am
mm
Dir  Spd
km/h
Gust
km/h
Spd
kts
Gust
kts
06/11:30pm 17.6 13.5 2.0 35 7.0 SSE 13 15 7 8 1016.8 1016.8 0.0
06/11:00pm 18.2 13.9 1.3 32 7.5 SE 13 17 7 9 1016.9 1016.9 0.0
06/10:30pm 20.2 15.7 2.1 30 8.3 SE 15 19 8 10 1016.9 1016.9 0.0
06/10:00pm 19.7 15.3 2.6 32 7.9 ESE 15 19 8 10 1017.0 1017.0 0.0
06/09:30pm 18.9 14.8 2.3 33 7.6 SE 13 15 7 8 1017.1 1017.1 0.0
06/09:00pm 20.3 15.8 2.2 30 8.4 SE 15 19 8 10 1017.1 1017.1 0.0
06/08:30pm 20.1 16.1 2.9 32 8.1 SE 13 15 7 8 1016.9 1016.9 0.0
06/08:00pm 19.1 15.8 4.8 39 6.9 SSE 11 11 6 6 1016.9 1016.9 0.0
06/07:30pm 21.7 18.5 2.9 29 8.9 SSE 9 11 5 6 1016.7 1016.7 0.0
06/07:00pm 21.9 20.4 7.0 38 7.6 SE 4 7 2 4 1016.5 1016.5 0.0
06/06:30pm 22.2 21.4 8.3 41 7.3 WNW 2 7 1 4 1016.3 1016.3 0.0
06/06:00pm 22.8 20.9 7.4 37 8.0 WNW 7 9 4 5 1015.9 1015.9 0.0
06/05:30pm 24.4 21.7 5.7 30 9.5 NW 9 9 5 5 1015.4 1015.4 0.0
06/05:00pm 26.8 23.7 5.7 26 10.9 NW 11 13 6 7 1015.1 1015.1 0.0
06/04:30pm 28.0 23.9 6.2 25 11.4 NW 17 20 9 11 1014.6 1014.6 0.0
06/04:00pm 29.3 24.5 2.5 18 13.3 W 17 20 9 11 1014.5 1014.5 0.0
06/03:30pm 29.5 24.7 2.7 18 13.4 W 17 24 9 13 1014.4 1014.4 0.0
06/03:00pm 29.9 25.9 3.0 18 13.5 W 13 20 7 11 1014.3 1014.3 0.0
06/02:30pm 29.9 25.6 3.0 18 13.5 NW 15 24 8 13 1014.3 1014.3 0.0
06/02:00pm 29.7 25.4 1.2 16 13.9 S 13 17 7 9 1014.7 1014.7 0.0
06/01:30pm 29.6 26.1 1.1 16 13.8 SE 9 19 5 10 1014.8 1014.8 0.0
06/01:00pm 29.2 26.2 1.7 17 13.4 ESE 7 17 4 9 1015.1 1015.1 0.0
06/12:30pm 29.0 25.5 1.5 17 13.4 ESE 9 17 5 9 1015.6 1015.6 0.0
06/12:00pm 28.9 24.7 1.4 17 13.3 E 13 24 7 13 1016.1 1016.1 0.0
06/11:30am 28.2 23.5 0.9 17 13.1 E 15 22 8 12 1016.6 1016.6 0.0
06/11:00am 27.7 22.1 1.2 18 12.7 E 20 28 11 15 1017.1 1017.1 0.0
06/10:30am 26.7 21.2 0.4 18 12.3 E 19 28 10 15 1017.5 1017.5 0.0
06/10:00am 26.2 20.0 0.0 18 12.1 NE 22 30 12 16 1017.6 1017.6 0.0
06/09:30am 25.5 18.7 0.9 20 11.5 E 26 35 14 19 1017.9 1017.9 0.0
06/09:00am 24.6 19.4 2.7 24 10.5 E 19 26 10 14 1018.0 1018.0 0.0
06/08:30am 23.2 18.6 3.7 28 9.5 E 17 22 9 12 1018.1 1018.1 0.0
06/08:00am 21.2 16.3 3.9 32 8.3 E 19 22 10 12 1018.0 1018.0 0.0
06/07:30am 17.9 14.2 4.5 41 6.4 ESE 13 17 7 9 1018.0 1018.0 0.0
06/07:00am 15.4 11.7 4.2 47 5.2 SE 13 15 7 8 1017.8 1017.8 0.0
06/06:30am 14.5 10.8 4.2 50 4.7 SE 13 15 7 8 1017.3 1017.3 0.0
06/06:00am 13.8 10.9 4.4 53 4.3 SE 9 13 5 7 1017.3 1017.3 0.0
06/05:30am 14.1 11.1 4.1 51 4.6 SSE 9 11 5 6 1017.0 1017.0 0.0
06/05:00am 14.5 11.5 3.9 49 4.8 SSE 9 11 5 6 1016.6 1016.6 0.0
06/04:30am 15.8 12.8 4.2 46 5.4 SE 9 11 5 6 1016.5 1016.5 0.0
06/04:00am 15.4 12.4 3.9 46 5.3 SSE 9 11 5 6 1016.4 1016.4 0.0
06/03:30am 16.5 12.8 4.5 45 5.6 SE 13 17 7 9 1016.0 1016.0 0.0
06/03:00am 16.2 12.4 3.9 44 5.7 SE 13 17 7 9 1015.9 1015.9 0.0
06/02:30am 15.2 11.3 3.4 45 5.4 SSE 13 17 7 9 1016.0 1016.0 0.0
06/02:00am 16.3 13.3 4.0 44 5.7 SE 9 11 5 6 1016.0 1016.0 0.0
06/01:30am 18.1 14.5 5.0 42 6.3 SE 13 17 7 9 1016.0 1016.0 0.0
06/01:00am 16.2 12.0 3.6 43 5.8 SSE 15 17 8 9 1016.1 1016.1 0.0
06/12:30am 15.9 11.6 3.0 42 5.9 SSE 15 17 8 9 1016.2 1016.2 0.0
06/12:00am 17.0 13.0 3.0 39 6.4 SE 13 15 7 8 1016.2 1016.2 0.0
 
Date/Time
WST
Temp
°C
App
Temp
°C
Dew
Point
°C
Rel
Hum
%
Delta-T
°C
Wind Press
QNH
hPa
Press
MSL
hPa
Rain since
9am
mm
Dir  Spd
km/h
Gust
km/h
Spd
kts
Gust
kts
05/11:30pm 17.9 14.2 2.6 36 7.0 SE 11 13 6 7 1016.3 1016.3 0.0
05/11:00pm 18.7 14.3 2.5 34 7.4 SE 15 17 8 9 1016.3 1016.3 0.0
05/10:30pm 19.3 14.9 2.6 33 7.7 SE 15 19 8 10 1016.4 1016.4 0.0

Other formats

Comma delimited format used in spreadsheet applications
http://www.bom.gov.au/fwo/IDW60801/IDW60801.95205.axf

JavaScript Object Notation format (JSON) in row-major order
http://www.bom.gov.au/fwo/IDW60801/IDW60801.95205.json

Data quality

Most of these data are generated automatically and are frequently updated. Quality checks on data are not normally performed. It is possible for incorrect values to appear. Refer to information at About Latest Weather Observations and please check the disclaimer before using these data.